Terminal Aerodrome Forecast
Issued by NWS

Home | Current Version | Previous Version | Text Only | Print | Product List | Glossary On
Versions: 1 2 3 4 5 6 7 8 9 10 11 12 13
801
FTUS41 KBTV 250539
TAFMSS
TAF
KMSS 250539Z 2506/2606 07014KT P6SM BKN250
     FM251500 08014KT P6SM BKN130 BKN200
     FM251800 09014KT P6SM VCSH OVC060
     FM260000 08010KT 5SM -SHRA BR OVC035=

USA.gov is the U.S. government's official web portal to all federal, state and local government web resources and services.